sensor_id;sensor_type;location;lat;lon;timestamp;temperature;humidity
66576;SHT31;53428;47.686;16.584;2023-02-19T00:02:48;13.91;70.26
66576;SHT31;53428;47.686;16.584;2023-02-19T00:07:48;13.76;71.06
66576;SHT31;53428;47.686;16.584;2023-02-19T00:12:48;13.45;73.35
66576;SHT31;53428;47.686;16.584;2023-02-19T00:17:47;13.46;73.29
66576;SHT31;53428;47.686;16.584;2023-02-19T00:22:46;13.34;74.35
66576;SHT31;53428;47.686;16.584;2023-02-19T00:27:46;13.04;75.95
66576;SHT31;53428;47.686;16.584;2023-02-19T00:32:49;12.81;77.66
66576;SHT31;53428;47.686;16.584;2023-02-19T00:37:49;12.54;78.74
66576;SHT31;53428;47.686;16.584;2023-02-19T00:42:48;12.71;77.92
66576;SHT31;53428;47.686;16.584;2023-02-19T00:47:48;12.76;77.87
66576;SHT31;53428;47.686;16.584;2023-02-19T00:52:47;12.73;78.35
66576;SHT31;53428;47.686;16.584;2023-02-19T00:57:47;12.68;78.75
66576;SHT31;53428;47.686;16.584;2023-02-19T01:02:46;12.65;79.14
66576;SHT31;53428;47.686;16.584;2023-02-19T01:07:45;12.54;79.69
66576;SHT31;53428;47.686;16.584;2023-02-19T01:12:45;12.43;80.25
66576;SHT31;53428;47.686;16.584;2023-02-19T01:17:44;12.46;80.06
66576;SHT31;53428;47.686;16.584;2023-02-19T01:22:44;12.33;80.67
66576;SHT31;53428;47.686;16.584;2023-02-19T01:27:47;12.35;80.73
66576;SHT31;53428;47.686;16.584;2023-02-19T01:32:47;12.22;81.16
66576;SHT31;53428;47.686;16.584;2023-02-19T01:37:46;12.23;81.11
66576;SHT31;53428;47.686;16.584;2023-02-19T01:42:46;12.15;81.58
66576;SHT31;53428;47.686;16.584;2023-02-19T01:47:46;12.12;82.12
66576;SHT31;53428;47.686;16.584;2023-02-19T01:52:47;11.98;82.74
66576;SHT31;53428;47.686;16.584;2023-02-19T01:57:51;11.89;83.33
66576;SHT31;53428;47.686;16.584;2023-02-19T02:02:54;11.82;84.03
66576;SHT31;53428;47.686;16.584;2023-02-19T02:08:01;11.70;84.70
66576;SHT31;53428;47.686;16.584;2023-02-19T02:13:19;11.78;84.65
66576;SHT31;53428;47.686;16.584;2023-02-19T02:18:37;11.87;84.17
66576;SHT31;53428;47.686;16.584;2023-02-19T02:29:42;11.74;84.41
66576;SHT31;53428;47.686;16.584;2023-02-19T02:35:00;11.60;85.07
66576;SHT31;53428;47.686;16.584;2023-02-19T02:40:04;11.48;85.64
66576;SHT31;53428;47.686;16.584;2023-02-19T02:50:43;11.34;86.42
66576;SHT31;53428;47.686;16.584;2023-02-19T02:55:46;11.30;86.85
66576;SHT31;53428;47.686;16.584;2023-02-19T03:00:53;11.27;87.33
66576;SHT31;53428;47.686;16.584;2023-02-19T03:06:14;11.22;87.39
66576;SHT31;53428;47.686;16.584;2023-02-19T03:11:14;11.26;87.43
66576;SHT31;53428;47.686;16.584;2023-02-19T03:16:42;11.20;87.65
66576;SHT31;53428;47.686;16.584;2023-02-19T03:27:02;11.15;87.93
66576;SHT31;53428;47.686;16.584;2023-02-19T03:32:11;11.22;87.81
66576;SHT31;53428;47.686;16.584;2023-02-19T03:37:19;11.13;88.35
66576;SHT31;53428;47.686;16.584;2023-02-19T03:47:45;10.89;89.48
66576;SHT31;53428;47.686;16.584;2023-02-19T03:58:52;10.85;89.64
66576;SHT31;53428;47.686;16.584;2023-02-19T04:04:00;10.81;89.72
66576;SHT31;53428;47.686;16.584;2023-02-19T04:09:04;10.78;89.87
66576;SHT31;53428;47.686;16.584;2023-02-19T04:14:06;10.73;90.58
66576;SHT31;53428;47.686;16.584;2023-02-19T04:19:18;10.73;90.52
66576;SHT31;53428;47.686;16.584;2023-02-19T04:24:40;10.73;90.58
66576;SHT31;53428;47.686;16.584;2023-02-19T04:29:41;10.64;91.22
66576;SHT31;53428;47.686;16.584;2023-02-19T04:34:40;10.55;91.94
66576;SHT31;53428;47.686;16.584;2023-02-19T04:39:40;10.47;92.52
66576;SHT31;53428;47.686;16.584;2023-02-19T04:44:39;10.44;92.65
66576;SHT31;53428;47.686;16.584;2023-02-19T04:49:39;10.50;92.34
66576;SHT31;53428;47.686;16.584;2023-02-19T04:54:38;10.40;92.50
66576;SHT31;53428;47.686;16.584;2023-02-19T04:59:37;10.40;92.47
66576;SHT31;53428;47.686;16.584;2023-02-19T05:04:37;10.43;91.94
66576;SHT31;53428;47.686;16.584;2023-02-19T05:09:36;10.51;90.80
66576;SHT31;53428;47.686;16.584;2023-02-19T05:14:36;10.54;91.25
66576;SHT31;53428;47.686;16.584;2023-02-19T05:19:35;10.60;91.28
66576;SHT31;53428;47.686;16.584;2023-02-19T05:24:35;10.47;92.24
66576;SHT31;53428;47.686;16.584;2023-02-19T05:29:34;10.34;92.14
66576;SHT31;53428;47.686;16.584;2023-02-19T05:34:33;10.33;91.28
66576;SHT31;53428;47.686;16.584;2023-02-19T05:39:33;10.31;90.99
66576;SHT31;53428;47.686;16.584;2023-02-19T05:44:32;10.34;91.00
66576;SHT31;53428;47.686;16.584;2023-02-19T05:49:32;10.34;91.18
66576;SHT31;53428;47.686;16.584;2023-02-19T05:54:31;10.24;91.45
66576;SHT31;53428;47.686;16.584;2023-02-19T05:59:30;10.21;91.40
66576;SHT31;53428;47.686;16.584;2023-02-19T06:04:30;10.18;91.23
66576;SHT31;53428;47.686;16.584;2023-02-19T06:09:29;10.04;92.02
66576;SHT31;53428;47.686;16.584;2023-02-19T06:14:30;10.33;91.09
66576;SHT31;53428;47.686;16.584;2023-02-19T06:19:29;10.25;91.15
66576;SHT31;53428;47.686;16.584;2023-02-19T06:24:29;10.18;91.68
66576;SHT31;53428;47.686;16.584;2023-02-19T06:29:28;10.25;91.25
66576;SHT31;53428;47.686;16.584;2023-02-19T06:34:28;10.33;90.97
66576;SHT31;53428;47.686;16.584;2023-02-19T06:39:27;10.29;90.98
66576;SHT31;53428;47.686;16.584;2023-02-19T06:44:27;10.29;90.96
66576;SHT31;53428;47.686;16.584;2023-02-19T06:49:26;10.36;90.48
66576;SHT31;53428;47.686;16.584;2023-02-19T06:54:26;10.37;90.33
66576;SHT31;53428;47.686;16.584;2023-02-19T06:59:25;10.52;89.28
66576;SHT31;53428;47.686;16.584;2023-02-19T07:04:25;10.52;90.42
66576;SHT31;53428;47.686;16.584;2023-02-19T07:09:24;10.58;90.49
66576;SHT31;53428;47.686;16.584;2023-02-19T07:14:23;10.61;90.26
66576;SHT31;53428;47.686;16.584;2023-02-19T07:19:23;10.72;90.32
66576;SHT31;53428;47.686;16.584;2023-02-19T07:24:22;10.86;89.64
66576;SHT31;53428;47.686;16.584;2023-02-19T07:29:21;10.95;89.19
66576;SHT31;53428;47.686;16.584;2023-02-19T07:34:21;11.05;89.30
66576;SHT31;53428;47.686;16.584;2023-02-19T07:39:20;10.93;89.12
66576;SHT31;53428;47.686;16.584;2023-02-19T07:44:19;10.98;88.98
66576;SHT31;53428;47.686;16.584;2023-02-19T07:49:19;10.93;89.07
66576;SHT31;53428;47.686;16.584;2023-02-19T07:54:18;11.05;89.19
66576;SHT31;53428;47.686;16.584;2023-02-19T07:59:18;10.98;89.66
66576;SHT31;53428;47.686;16.584;2023-02-19T08:04:19;11.00;89.42
66576;SHT31;53428;47.686;16.584;2023-02-19T08:09:19;11.06;89.93
66576;SHT31;53428;47.686;16.584;2023-02-19T08:14:18;11.12;89.45
66576;SHT31;53428;47.686;16.584;2023-02-19T08:19:18;11.27;88.38
66576;SHT31;53428;47.686;16.584;2023-02-19T08:24:18;11.60;87.28
66576;SHT31;53428;47.686;16.584;2023-02-19T08:29:17;11.63;86.97
66576;SHT31;53428;47.686;16.584;2023-02-19T08:34:17;11.68;87.01
66576;SHT31;53428;47.686;16.584;2023-02-19T08:39:16;12.01;86.07
66576;SHT31;53428;47.686;16.584;2023-02-19T08:44:16;12.15;85.83
66576;SHT31;53428;47.686;16.584;2023-02-19T08:49:15;12.37;83.37
66576;SHT31;53428;47.686;16.584;2023-02-19T08:54:15;12.32;83.56
66576;SHT31;53428;47.686;16.584;2023-02-19T08:59:14;12.50;82.89
66576;SHT31;53428;47.686;16.584;2023-02-19T09:04:14;12.60;82.07
66576;SHT31;53428;47.686;16.584;2023-02-19T09:09:13;12.67;81.19
66576;SHT31;53428;47.686;16.584;2023-02-19T09:14:12;12.79;80.66
66576;SHT31;53428;47.686;16.584;2023-02-19T09:19:12;12.73;80.50
66576;SHT31;53428;47.686;16.584;2023-02-19T09:24:11;13.12;76.68
66576;SHT31;53428;47.686;16.584;2023-02-19T09:29:11;13.32;74.21
66576;SHT31;53428;47.686;16.584;2023-02-19T09:34:11;13.87;68.64
66576;SHT31;53428;47.686;16.584;2023-02-19T09:39:10;14.13;67.64
66576;SHT31;53428;47.686;16.584;2023-02-19T09:44:13;14.39;66.64
66576;SHT31;53428;47.686;16.584;2023-02-19T09:49:18;14.51;66.47
66576;SHT31;53428;47.686;16.584;2023-02-19T09:54:25;14.73;66.01
66576;SHT31;53428;47.686;16.584;2023-02-19T09:59:29;15.34;65.19
66576;SHT31;53428;47.686;16.584;2023-02-19T10:04:30;15.06;65.24
66576;SHT31;53428;47.686;16.584;2023-02-19T10:09:30;14.38;66.83
66576;SHT31;53428;47.686;16.584;2023-02-19T10:19:30;14.04;68.20
66576;SHT31;53428;47.686;16.584;2023-02-19T10:24:30;14.00;68.38
66576;SHT31;53428;47.686;16.584;2023-02-19T10:29:30;14.04;69.12
66576;SHT31;53428;47.686;16.584;2023-02-19T10:34:29;13.84;69.27
66576;SHT31;53428;47.686;16.584;2023-02-19T10:39:34;14.07;68.42
66576;SHT31;53428;47.686;16.584;2023-02-19T10:44:41;14.06;67.27
66576;SHT31;53428;47.686;16.584;2023-02-19T10:49:42;13.60;71.86
66576;SHT31;53428;47.686;16.584;2023-02-19T10:54:45;12.91;73.59
66576;SHT31;53428;47.686;16.584;2023-02-19T10:59:52;13.08;70.51
66576;SHT31;53428;47.686;16.584;2023-02-19T11:15:37;13.90;68.14
66576;SHT31;53428;47.686;16.584;2023-02-19T11:20:46;14.08;65.79
66576;SHT31;53428;47.686;16.584;2023-02-19T11:25:52;14.36;64.66
66576;SHT31;53428;47.686;16.584;2023-02-19T11:30:52;14.92;62.86
66576;SHT31;53428;47.686;16.584;2023-02-19T11:41:32;15.16;61.38
66576;SHT31;53428;47.686;16.584;2023-02-19T11:47:00;15.55;59.53
66576;SHT31;53428;47.686;16.584;2023-02-19T12:02:52;16.36;55.93
66576;SHT31;53428;47.686;16.584;2023-02-19T12:13:34;16.45;53.38
66576;SHT31;53428;47.686;16.584;2023-02-19T12:24:05;16.78;52.38
66576;SHT31;53428;47.686;16.584;2023-02-19T12:45:30;16.27;52.63
66576;SHT31;53428;47.686;16.584;2023-02-19T12:50:36;16.38;52.30
66576;SHT31;53428;47.686;16.584;2023-02-19T12:55:43;16.34;52.20
66576;SHT31;53428;47.686;16.584;2023-02-19T13:00:48;16.54;52.33
66576;SHT31;53428;47.686;16.584;2023-02-19T13:05:49;15.75;53.65
66576;SHT31;53428;47.686;16.584;2023-02-19T13:10:55;16.92;51.77
66576;SHT31;53428;47.686;16.584;2023-02-19T13:16:01;17.32;51.20
66576;SHT31;53428;47.686;16.584;2023-02-19T13:21:04;16.27;52.34
66576;SHT31;53428;47.686;16.584;2023-02-19T13:36:38;16.79;52.15
66576;SHT31;53428;47.686;16.584;2023-02-19T13:41:47;16.79;52.03
66576;SHT31;53428;47.686;16.584;2023-02-19T13:46:50;16.38;52.21
66576;SHT31;53428;47.686;16.584;2023-02-19T13:51:51;16.92;51.28
66576;SHT31;53428;47.686;16.584;2023-02-19T14:12:36;16.05;52.19
66576;SHT31;53428;47.686;16.584;2023-02-19T14:17:40;16.14;52.00
66576;SHT31;53428;47.686;16.584;2023-02-19T14:27:45;14.94;54.68
66576;SHT31;53428;47.686;16.584;2023-02-19T14:32:45;14.36;57.10
66576;SHT31;53428;47.686;16.584;2023-02-19T14:37:47;14.52;55.75
66576;SHT31;53428;47.686;16.584;2023-02-19T14:42:50;14.00;56.55
66576;SHT31;53428;47.686;16.584;2023-02-19T14:47:52;13.88;57.07
66576;SHT31;53428;47.686;16.584;2023-02-19T14:52:56;13.90;57.14
66576;SHT31;53428;47.686;16.584;2023-02-19T14:57:56;13.73;56.78
66576;SHT31;53428;47.686;16.584;2023-02-19T15:02:57;13.70;57.29
66576;SHT31;53428;47.686;16.584;2023-02-19T15:08:02;13.40;57.67
66576;SHT31;53428;47.686;16.584;2023-02-19T15:13:06;13.32;58.38
66576;SHT31;53428;47.686;16.584;2023-02-19T15:18:06;13.28;59.10
66576;SHT31;53428;47.686;16.584;2023-02-19T15:23:06;13.23;58.94
66576;SHT31;53428;47.686;16.584;2023-02-19T15:33:25;12.97;60.64
66576;SHT31;53428;47.686;16.584;2023-02-19T15:38:28;12.81;61.47
66576;SHT31;53428;47.686;16.584;2023-02-19T15:43:33;12.63;61.99
66576;SHT31;53428;47.686;16.584;2023-02-19T15:48:48;12.42;62.98
66576;SHT31;53428;47.686;16.584;2023-02-19T15:53:54;12.18;64.18
66576;SHT31;53428;47.686;16.584;2023-02-19T15:59:03;11.99;64.99
66576;SHT31;53428;47.686;16.584;2023-02-19T16:04:15;12.08;64.36
66576;SHT31;53428;47.686;16.584;2023-02-19T16:09:21;11.94;64.65
66576;SHT31;53428;47.686;16.584;2023-02-19T16:14:32;12.01;64.16
66576;SHT31;53428;47.686;16.584;2023-02-19T16:24:46;11.82;65.12
66576;SHT31;53428;47.686;16.584;2023-02-19T16:29:50;11.70;65.84
66576;SHT31;53428;47.686;16.584;2023-02-19T16:34:51;11.58;66.20
66576;SHT31;53428;47.686;16.584;2023-02-19T16:45:28;11.27;67.81
66576;SHT31;53428;47.686;16.584;2023-02-19T16:50:28;11.24;68.00
66576;SHT31;53428;47.686;16.584;2023-02-19T16:55:29;11.23;68.36
66576;SHT31;53428;47.686;16.584;2023-02-19T17:00:35;11.36;67.73
66576;SHT31;53428;47.686;16.584;2023-02-19T17:05:36;11.23;68.77
66576;SHT31;53428;47.686;16.584;2023-02-19T17:10:36;11.08;70.18
66576;SHT31;53428;47.686;16.584;2023-02-19T17:15:36;9.81;83.10
66576;SHT31;53428;47.686;16.584;2023-02-19T17:20:36;8.65;91.58
66576;SHT31;53428;47.686;16.584;2023-02-19T17:25:38;8.21;93.98
66576;SHT31;53428;47.686;16.584;2023-02-19T17:30:39;7.91;93.20
66576;SHT31;53428;47.686;16.584;2023-02-19T17:35:39;7.58;93.95
66576;SHT31;53428;47.686;16.584;2023-02-19T17:40:40;7.53;93.91
66576;SHT31;53428;47.686;16.584;2023-02-19T17:45:40;7.56;93.45
66576;SHT31;53428;47.686;16.584;2023-02-19T17:50:41;7.61;92.92
66576;SHT31;53428;47.686;16.584;2023-02-19T17:55:40;7.65;92.96
66576;SHT31;53428;47.686;16.584;2023-02-19T18:00:40;7.70;93.18
66576;SHT31;53428;47.686;16.584;2023-02-19T18:05:40;7.83;92.50
66576;SHT31;53428;47.686;16.584;2023-02-19T18:10:40;7.89;92.53
66576;SHT31;53428;47.686;16.584;2023-02-19T18:15:41;7.79;93.04
66576;SHT31;53428;47.686;16.584;2023-02-19T18:20:42;7.58;93.70
66576;SHT31;53428;47.686;16.584;2023-02-19T18:25:42;7.28;96.07
66576;SHT31;53428;47.686;16.584;2023-02-19T18:30:41;7.08;97.25
66576;SHT31;53428;47.686;16.584;2023-02-19T18:35:41;6.95;98.25
66576;SHT31;53428;47.686;16.584;2023-02-19T18:40:41;6.90;99.07
66576;SHT31;53428;47.686;16.584;2023-02-19T18:45:41;6.97;98.35
66576;SHT31;53428;47.686;16.584;2023-02-19T18:50:41;6.98;98.27
66576;SHT31;53428;47.686;16.584;2023-02-19T18:55:41;6.94;99.59
66576;SHT31;53428;47.686;16.584;2023-02-19T19:00:41;6.90;99.99
66576;SHT31;53428;47.686;16.584;2023-02-19T19:05:41;6.94;99.90
66576;SHT31;53428;47.686;16.584;2023-02-19T19:10:41;6.97;98.78
66576;SHT31;53428;47.686;16.584;2023-02-19T19:15:41;7.03;98.13
66576;SHT31;53428;47.686;16.584;2023-02-19T19:20:41;7.09;97.18
66576;SHT31;53428;47.686;16.584;2023-02-19T19:25:40;6.98;97.00
66576;SHT31;53428;47.686;16.584;2023-02-19T19:30:40;6.97;97.23
66576;SHT31;53428;47.686;16.584;2023-02-19T19:35:40;7.03;96.74
66576;SHT31;53428;47.686;16.584;2023-02-19T19:40:40;7.01;96.64
66576;SHT31;53428;47.686;16.584;2023-02-19T19:45:41;6.98;96.80
66576;SHT31;53428;47.686;16.584;2023-02-19T19:50:41;7.00;97.44
66576;SHT31;53428;47.686;16.584;2023-02-19T19:55:41;7.01;97.73
66576;SHT31;53428;47.686;16.584;2023-02-19T20:00:41;6.95;97.92
66576;SHT31;53428;47.686;16.584;2023-02-19T20:05:41;7.00;97.35
66576;SHT31;53428;47.686;16.584;2023-02-19T20:10:44;7.08;96.55
66576;SHT31;53428;47.686;16.584;2023-02-19T20:15:44;7.01;97.38
66576;SHT31;53428;47.686;16.584;2023-02-19T20:20:44;6.97;97.46
66576;SHT31;53428;47.686;16.584;2023-02-19T20:25:44;7.05;96.50
66576;SHT31;53428;47.686;16.584;2023-02-19T20:30:45;7.05;96.90
66576;SHT31;53428;47.686;16.584;2023-02-19T20:35:44;6.93;97.86
66576;SHT31;53428;47.686;16.584;2023-02-19T20:40:44;6.94;97.72
66576;SHT31;53428;47.686;16.584;2023-02-19T20:45:44;6.93;98.13
66576;SHT31;53428;47.686;16.584;2023-02-19T20:50:46;7.01;98.14
66576;SHT31;53428;47.686;16.584;2023-02-19T20:55:45;7.00;98.28
66576;SHT31;53428;47.686;16.584;2023-02-19T21:00:45;6.93;99.16
66576;SHT31;53428;47.686;16.584;2023-02-19T21:05:44;6.93;98.78
66576;SHT31;53428;47.686;16.584;2023-02-19T21:10:45;6.87;99.94
66576;SHT31;53428;47.686;16.584;2023-02-19T21:15:45;6.84;99.99
66576;SHT31;53428;47.686;16.584;2023-02-19T21:20:44;6.87;99.99
66576;SHT31;53428;47.686;16.584;2023-02-19T21:25:44;6.90;99.44
66576;SHT31;53428;47.686;16.584;2023-02-19T21:30:44;6.95;99.32
66576;SHT31;53428;47.686;16.584;2023-02-19T21:35:44;6.94;99.99
66576;SHT31;53428;47.686;16.584;2023-02-19T21:40:44;6.95;98.90
66576;SHT31;53428;47.686;16.584;2023-02-19T21:45:44;6.88;99.95
66576;SHT31;53428;47.686;16.584;2023-02-19T21:50:43;6.83;99.99
66576;SHT31;53428;47.686;16.584;2023-02-19T21:55:43;6.53;99.99
66576;SHT31;53428;47.686;16.584;2023-02-19T22:00:46;5.87;99.99
66576;SHT31;53428;47.686;16.584;2023-02-19T22:05:46;5.63;99.99
66576;SHT31;53428;47.686;16.584;2023-02-19T22:10:45;5.44;99.99
66576;SHT31;53428;47.686;16.584;2023-02-19T22:15:45;5.29;99.99
66576;SHT31;53428;47.686;16.584;2023-02-19T22:20:44;5.16;99.99
66576;SHT31;53428;47.686;16.584;2023-02-19T22:25:44;5.07;99.99
66576;SHT31;53428;47.686;16.584;2023-02-19T22:30:43;4.92;99.99
66576;SHT31;53428;47.686;16.584;2023-02-19T22:35:42;4.96;99.99
66576;SHT31;53428;47.686;16.584;2023-02-19T22:40:42;4.80;99.99
66576;SHT31;53428;47.686;16.584;2023-02-19T22:45:41;4.84;99.99
66576;SHT31;53428;47.686;16.584;2023-02-19T22:50:41;4.61;99.99
66576;SHT31;53428;47.686;16.584;2023-02-19T22:55:40;4.65;99.99
66576;SHT31;53428;47.686;16.584;2023-02-19T23:00:39;4.61;99.99
66576;SHT31;53428;47.686;16.584;2023-02-19T23:05:39;4.61;99.88
66576;SHT31;53428;47.686;16.584;2023-02-19T23:10:38;4.56;99.36
66576;SHT31;53428;47.686;16.584;2023-02-19T23:15:39;4.44;98.65
66576;SHT31;53428;47.686;16.584;2023-02-19T23:20:38;4.40;98.97
66576;SHT31;53428;47.686;16.584;2023-02-19T23:25:37;4.50;99.63
66576;SHT31;53428;47.686;16.584;2023-02-19T23:30:36;4.53;99.80
66576;SHT31;53428;47.686;16.584;2023-02-19T23:35:36;4.49;97.46
66576;SHT31;53428;47.686;16.584;2023-02-19T23:40:35;4.56;99.04
66576;SHT31;53428;47.686;16.584;2023-02-19T23:45:35;4.44;98.23
66576;SHT31;53428;47.686;16.584;2023-02-19T23:50:34;4.52;97.07
66576;SHT31;53428;47.686;16.584;2023-02-19T23:55:33;4.36;98.08
